| Date | Time | Temp. (oF) | Dew Point (oF) | Rel. Hum. (%) | Press. (in.) | Wind Dir. (deg.) | Wind Speed (mph) | Hourly Rainfall (i n.) |
|
|---|---|---|---|---|---|---|---|---|---|
| 1 | 08/07 | 24:00 | 74 | 52 | 47 | 30.21 | 320 | 1 | 0.00 |
| 2 | 08/06 | 23:00 | 74 | 52 | 47 | 30.20 | 250 | 0 | 0.00 |
| 3 | 08/06 | 22:00 | 76 | 52 | 44 | 30.16 | 250 | 0 | 0.00 |
| 4 | 08/06 | 21:00 | 79 | 50 | 37 | 30.11 | 250 | 2 | 0.00 |
| 5 | 08/06 | 20:00 | 82 | 49 | 33 | 30.11 | 330 | 2 | 0.00 |
| 6 | 08/06 | 19:00 | 84 | 51 | 33 | 30.12 | 100 | 2 | 0.00 |
| 7 | 08/06 | 18:00 | 85 | 51 | 32 | 30.12 | 140 | 4 | 0.00 |
| 8 | 08/06 | 17:00 | 86 | 50 | 30 | 30.12 | 290 | 11 | 0.00 |
| 9 | 08/06 | 16:00 | 85 | 48 | 29 | 30.11 | 310 | 2 | 0.00 |
| 10 | 08/06 | 15:00 | 85 | 49 | 30 | 30.11 | 170 | 9 | 0.00 |
| 11 | 08/06 | 14:00 | 85 | 50 | 31 | 30.12 | 290 | 7 | 0.00 |
| 12 | 08/06 | 13:00 | 82 | 50 | 34 | 30.13 | 10 | 6 | 0.00 |
| 13 | 08/06 | 12:00 | 80 | 51 | 37 | 30.14 | 270 | 13 | 0.00 |
| 14 | 08/06 | 11:00 | 76 | 49 | 40 | 30.14 | 290 | 10 | 0.00 |
| 15 | 08/06 | 10:00 | 71 | 53 | 54 | 30.14 | 290 | 6 | 0.00 |
| 16 | 08/06 | 09:00 | 69 | 55 | 63 | 30.16 | 270 | 2 | 0.00 |
| 17 | 08/06 | 08:00 | 66 | 56 | 72 | 30.16 | 270 | 1 | 0.00 |
| 18 | 08/06 | 07:00 | 63 | 55 | 76 | 30.13 | 10 | 0 | 0.00 |
| 19 | 08/06 | 06:00 | 64 | 56 | 77 | 30.16 | 10 | 0 | 0.00 |
| 20 | 08/06 | 05:00 | 64 | 56 | 77 | 30.13 | 10 | 0 | 0.00 |
| 21 | 08/06 | 04:00 | 65 | 56 | 75 | 30.11 | 10 | 0 | 0.00 |
| 22 | 08/06 | 03:00 | 67 | 57 | 71 | 30.11 | 10 | 0 | 0.00 |
| 23 | 08/06 | 02:00 | 69 | 55 | 63 | 30.10 | 10 | 0 | 0.00 |
| 24 | 08/06 | 01:00 | 72 | 53 | 53 | 30.10 | 10 | 1 | 0.00 |